sensor_id;sensor_type;location;lat;lon;timestamp;temperature;humidity
6407;DHT22;3236;51.022;6.818;2022-08-25T00:01:39;21.20;99.90
6407;DHT22;3236;51.022;6.818;2022-08-25T00:04:09;21.50;99.90
6407;DHT22;3236;51.022;6.818;2022-08-25T00:06:37;21.20;99.90
6407;DHT22;3236;51.022;6.818;2022-08-25T00:09:05;21.70;99.90
6407;DHT22;3236;51.022;6.818;2022-08-25T00:11:36;21.70;99.90
6407;DHT22;3236;51.022;6.818;2022-08-25T00:14:08;21.80;99.90
6407;DHT22;3236;51.022;6.818;2022-08-25T00:21:38;21.20;99.90
6407;DHT22;3236;51.022;6.818;2022-08-25T00:24:09;21.40;99.90
6407;DHT22;3236;51.022;6.818;2022-08-25T00:26:40;21.40;99.90
6407;DHT22;3236;51.022;6.818;2022-08-25T00:29:09;21.30;99.90
6407;DHT22;3236;51.022;6.818;2022-08-25T00:31:37;21.00;99.90
6407;DHT22;3236;51.022;6.818;2022-08-25T00:34:06;21.30;99.90
6407;DHT22;3236;51.022;6.818;2022-08-25T00:36:36;21.20;99.90
6407;DHT22;3236;51.022;6.818;2022-08-25T00:39:05;21.20;99.90
6407;DHT22;3236;51.022;6.818;2022-08-25T00:41:33;21.20;99.90
6407;DHT22;3236;51.022;6.818;2022-08-25T00:44:04;21.20;99.90
6407;DHT22;3236;51.022;6.818;2022-08-25T00:46:34;21.10;99.90
6407;DHT22;3236;51.022;6.818;2022-08-25T00:49:04;21.30;99.90
6407;DHT22;3236;51.022;6.818;2022-08-25T00:54:04;21.20;99.90
6407;DHT22;3236;51.022;6.818;2022-08-25T01:03:58;20.90;99.90
6407;DHT22;3236;51.022;6.818;2022-08-25T01:08:55;20.70;99.90
6407;DHT22;3236;51.022;6.818;2022-08-25T01:11:26;20.60;99.90
6407;DHT22;3236;51.022;6.818;2022-08-25T01:13:54;20.80;99.90
6407;DHT22;3236;51.022;6.818;2022-08-25T01:18:55;20.60;99.90
6407;DHT22;3236;51.022;6.818;2022-08-25T01:21:26;20.30;99.90
6407;DHT22;3236;51.022;6.818;2022-08-25T01:23:54;20.50;99.90
6407;DHT22;3236;51.022;6.818;2022-08-25T01:26:24;20.60;99.90
6407;DHT22;3236;51.022;6.818;2022-08-25T01:28:52;20.20;99.90
6407;DHT22;3236;51.022;6.818;2022-08-25T01:36:35;20.40;99.90
6407;DHT22;3236;51.022;6.818;2022-08-25T01:39:03;20.50;99.90
6407;DHT22;3236;51.022;6.818;2022-08-25T01:41:54;20.40;99.90
6407;DHT22;3236;51.022;6.818;2022-08-25T01:51:55;20.60;99.90
6407;DHT22;3236;51.022;6.818;2022-08-25T01:56:50;20.60;99.90
6407;DHT22;3236;51.022;6.818;2022-08-25T01:59:18;20.70;99.90
6407;DHT22;3236;51.022;6.818;2022-08-25T02:01:46;19.80;99.90
6407;DHT22;3236;51.022;6.818;2022-08-25T02:09:14;19.90;99.90
6407;DHT22;3236;51.022;6.818;2022-08-25T02:17:13;19.70;99.90
6407;DHT22;3236;51.022;6.818;2022-08-25T02:19:43;19.70;99.90
6407;DHT22;3236;51.022;6.818;2022-08-25T02:29:35;19.30;99.90
6407;DHT22;3236;51.022;6.818;2022-08-25T02:32:03;19.40;99.90
6407;DHT22;3236;51.022;6.818;2022-08-25T02:34:30;19.60;99.90
6407;DHT22;3236;51.022;6.818;2022-08-25T02:36:57;19.20;99.90
6407;DHT22;3236;51.022;6.818;2022-08-25T02:41:52;19.30;99.90
6407;DHT22;3236;51.022;6.818;2022-08-25T02:49:17;19.90;99.90
6407;DHT22;3236;51.022;6.818;2022-08-25T02:51:44;19.20;99.90
6407;DHT22;3236;51.022;6.818;2022-08-25T02:59:08;19.10;99.90
6407;DHT22;3236;51.022;6.818;2022-08-25T03:01:35;18.80;99.90
6407;DHT22;3236;51.022;6.818;2022-08-25T03:11:27;18.80;99.90
6407;DHT22;3236;51.022;6.818;2022-08-25T03:16:25;18.50;99.90
6407;DHT22;3236;51.022;6.818;2022-08-25T03:26:15;18.60;99.90
6407;DHT22;3236;51.022;6.818;2022-08-25T03:29:00;18.20;99.90
6407;DHT22;3236;51.022;6.818;2022-08-25T03:31:31;18.50;99.90
6407;DHT22;3236;51.022;6.818;2022-08-25T03:33:59;18.60;99.90
6407;DHT22;3236;51.022;6.818;2022-08-25T03:36:26;18.30;99.90
6407;DHT22;3236;51.022;6.818;2022-08-25T03:38:54;18.90;99.90
6407;DHT22;3236;51.022;6.818;2022-08-25T03:41:23;18.90;99.90
6407;DHT22;3236;51.022;6.818;2022-08-25T03:43:50;18.60;99.90
6407;DHT22;3236;51.022;6.818;2022-08-25T03:46:19;18.80;99.90
6407;DHT22;3236;51.022;6.818;2022-08-25T03:48:48;18.60;99.90
6407;DHT22;3236;51.022;6.818;2022-08-25T03:51:19;18.20;99.90
6407;DHT22;3236;51.022;6.818;2022-08-25T03:58:41;18.70;99.90
6407;DHT22;3236;51.022;6.818;2022-08-25T04:01:11;18.10;99.90
6407;DHT22;3236;51.022;6.818;2022-08-25T04:03:38;18.40;99.90
6407;DHT22;3236;51.022;6.818;2022-08-25T04:06:07;18.30;99.90
6407;DHT22;3236;51.022;6.818;2022-08-25T04:08:35;18.60;99.90
6407;DHT22;3236;51.022;6.818;2022-08-25T04:11:06;18.30;99.90
6407;DHT22;3236;51.022;6.818;2022-08-25T04:18:32;18.10;99.90
6407;DHT22;3236;51.022;6.818;2022-08-25T04:21:02;18.30;99.90
6407;DHT22;3236;51.022;6.818;2022-08-25T04:25:59;18.10;99.90
6407;DHT22;3236;51.022;6.818;2022-08-25T04:28:26;18.60;99.90
6407;DHT22;3236;51.022;6.818;2022-08-25T04:30:54;18.30;99.90
6407;DHT22;3236;51.022;6.818;2022-08-25T04:35:48;18.40;99.90
6407;DHT22;3236;51.022;6.818;2022-08-25T04:40:55;18.10;99.90
6407;DHT22;3236;51.022;6.818;2022-08-25T04:45:50;18.50;99.90
6407;DHT22;3236;51.022;6.818;2022-08-25T04:48:17;18.10;99.90
6407;DHT22;3236;51.022;6.818;2022-08-25T04:53:13;18.40;99.90
6407;DHT22;3236;51.022;6.818;2022-08-25T04:55:41;18.30;99.90
6407;DHT22;3236;51.022;6.818;2022-08-25T05:00:40;18.50;99.90
6407;DHT22;3236;51.022;6.818;2022-08-25T05:03:23;18.50;99.90
6407;DHT22;3236;51.022;6.818;2022-08-25T05:05:51;18.10;99.90
6407;DHT22;3236;51.022;6.818;2022-08-25T05:10:45;18.00;99.90
6407;DHT22;3236;51.022;6.818;2022-08-25T05:13:14;18.20;99.90
6407;DHT22;3236;51.022;6.818;2022-08-25T05:15:41;18.40;99.90
6407;DHT22;3236;51.022;6.818;2022-08-25T05:18:19;17.80;99.90
6407;DHT22;3236;51.022;6.818;2022-08-25T05:20:47;18.70;99.90
6407;DHT22;3236;51.022;6.818;2022-08-25T05:23:14;18.60;99.90
6407;DHT22;3236;51.022;6.818;2022-08-25T05:30:38;19.10;99.90
6407;DHT22;3236;51.022;6.818;2022-08-25T05:33:06;18.90;99.90
6407;DHT22;3236;51.022;6.818;2022-08-25T05:35:33;19.60;99.90
6407;DHT22;3236;51.022;6.818;2022-08-25T05:38:00;19.90;99.90
6407;DHT22;3236;51.022;6.818;2022-08-25T05:40:31;19.60;99.90
6407;DHT22;3236;51.022;6.818;2022-08-25T05:43:05;19.70;99.90
6407;DHT22;3236;51.022;6.818;2022-08-25T05:45:32;20.10;99.90
6407;DHT22;3236;51.022;6.818;2022-08-25T05:48:01;19.70;99.90
6407;DHT22;3236;51.022;6.818;2022-08-25T05:50:29;19.90;99.90
6407;DHT22;3236;51.022;6.818;2022-08-25T05:55:23;20.60;99.90
6407;DHT22;3236;51.022;6.818;2022-08-25T06:00:18;20.00;99.90
6407;DHT22;3236;51.022;6.818;2022-08-25T06:02:45;21.20;99.90
6407;DHT22;3236;51.022;6.818;2022-08-25T06:05:17;20.90;99.90
6407;DHT22;3236;51.022;6.818;2022-08-25T06:07:45;20.80;99.90
6407;DHT22;3236;51.022;6.818;2022-08-25T06:10:13;21.20;99.90
6407;DHT22;3236;51.022;6.818;2022-08-25T06:12:42;21.60;99.90
6407;DHT22;3236;51.022;6.818;2022-08-25T06:15:11;21.20;99.90
6407;DHT22;3236;51.022;6.818;2022-08-25T06:20:10;21.70;99.90
6407;DHT22;3236;51.022;6.818;2022-08-25T06:25:08;22.70;99.90
6407;DHT22;3236;51.022;6.818;2022-08-25T06:27:36;22.80;99.90
6407;DHT22;3236;51.022;6.818;2022-08-25T06:30:04;22.80;99.90
6407;DHT22;3236;51.022;6.818;2022-08-25T06:32:32;22.70;99.90
6407;DHT22;3236;51.022;6.818;2022-08-25T06:35:00;22.50;99.90
6407;DHT22;3236;51.022;6.818;2022-08-25T06:39:56;22.70;99.90
6407;DHT22;3236;51.022;6.818;2022-08-25T06:42:23;22.80;99.90
6407;DHT22;3236;51.022;6.818;2022-08-25T06:44:50;23.10;99.90
6407;DHT22;3236;51.022;6.818;2022-08-25T06:52:16;24.60;99.90
6407;DHT22;3236;51.022;6.818;2022-08-25T06:54:43;23.50;99.90
6407;DHT22;3236;51.022;6.818;2022-08-25T06:57:12;23.70;99.90
6407;DHT22;3236;51.022;6.818;2022-08-25T07:02:14;24.20;99.90
6407;DHT22;3236;51.022;6.818;2022-08-25T07:04:41;24.10;99.90
6407;DHT22;3236;51.022;6.818;2022-08-25T07:12:02;24.40;99.90
6407;DHT22;3236;51.022;6.818;2022-08-25T07:14:31;24.70;99.90
6407;DHT22;3236;51.022;6.818;2022-08-25T07:19:27;23.90;99.90
6407;DHT22;3236;51.022;6.818;2022-08-25T07:21:54;24.50;99.90
6407;DHT22;3236;51.022;6.818;2022-08-25T07:24:22;24.90;99.90
6407;DHT22;3236;51.022;6.818;2022-08-25T07:26:50;25.20;99.90
6407;DHT22;3236;51.022;6.818;2022-08-25T07:31:47;24.90;99.90
6407;DHT22;3236;51.022;6.818;2022-08-25T07:34:15;24.80;99.90
6407;DHT22;3236;51.022;6.818;2022-08-25T07:37:00;25.60;99.90
6407;DHT22;3236;51.022;6.818;2022-08-25T07:39:29;25.60;99.90
6407;DHT22;3236;51.022;6.818;2022-08-25T07:46:53;25.40;99.90
6407;DHT22;3236;51.022;6.818;2022-08-25T07:49:22;25.70;99.90
6407;DHT22;3236;51.022;6.818;2022-08-25T07:56:47;26.10;99.90
6407;DHT22;3236;51.022;6.818;2022-08-25T08:04:13;25.30;99.90
6407;DHT22;3236;51.022;6.818;2022-08-25T08:06:40;25.40;99.90
6407;DHT22;3236;51.022;6.818;2022-08-25T08:09:07;25.00;99.90
6407;DHT22;3236;51.022;6.818;2022-08-25T08:11:35;25.40;99.90
6407;DHT22;3236;51.022;6.818;2022-08-25T08:14:06;25.20;99.90
6407;DHT22;3236;51.022;6.818;2022-08-25T08:16:33;26.00;99.90
6407;DHT22;3236;51.022;6.818;2022-08-25T08:21:32;26.00;99.90
6407;DHT22;3236;51.022;6.818;2022-08-25T08:24:00;26.00;99.90
6407;DHT22;3236;51.022;6.818;2022-08-25T08:26:28;26.30;99.90
6407;DHT22;3236;51.022;6.818;2022-08-25T08:28:55;26.10;99.90
6407;DHT22;3236;51.022;6.818;2022-08-25T08:31:23;26.80;99.90
6407;DHT22;3236;51.022;6.818;2022-08-25T08:33:52;26.10;99.90
6407;DHT22;3236;51.022;6.818;2022-08-25T08:36:20;26.60;99.90
6407;DHT22;3236;51.022;6.818;2022-08-25T08:38:49;26.40;99.90
6407;DHT22;3236;51.022;6.818;2022-08-25T08:41:31;26.50;99.90
6407;DHT22;3236;51.022;6.818;2022-08-25T08:44:26;26.70;99.90
6407;DHT22;3236;51.022;6.818;2022-08-25T08:47:03;26.90;99.90
6407;DHT22;3236;51.022;6.818;2022-08-25T08:49:36;27.10;99.90
6407;DHT22;3236;51.022;6.818;2022-08-25T08:52:06;26.40;99.90
6407;DHT22;3236;51.022;6.818;2022-08-25T08:54:38;26.90;99.90
6407;DHT22;3236;51.022;6.818;2022-08-25T08:57:10;26.70;99.90
6407;DHT22;3236;51.022;6.818;2022-08-25T09:02:15;27.20;99.90
6407;DHT22;3236;51.022;6.818;2022-08-25T09:04:49;26.80;99.80
6407;DHT22;3236;51.022;6.818;2022-08-25T09:07:23;27.50;99.60
6407;DHT22;3236;51.022;6.818;2022-08-25T09:09:55;27.10;99.90
6407;DHT22;3236;51.022;6.818;2022-08-25T09:12:31;27.40;99.30
6407;DHT22;3236;51.022;6.818;2022-08-25T09:15:07;27.90;99.90
6407;DHT22;3236;51.022;6.818;2022-08-25T09:17:57;27.80;99.30
6407;DHT22;3236;51.022;6.818;2022-08-25T09:20:53;28.10;99.40
6407;DHT22;3236;51.022;6.818;2022-08-25T09:23:41;27.60;98.80
6407;DHT22;3236;51.022;6.818;2022-08-25T09:26:23;28.20;98.60
6407;DHT22;3236;51.022;6.818;2022-08-25T09:29:00;28.10;98.40
6407;DHT22;3236;51.022;6.818;2022-08-25T09:31:31;27.90;98.00
6407;DHT22;3236;51.022;6.818;2022-08-25T09:34:00;28.20;96.40
6407;DHT22;3236;51.022;6.818;2022-08-25T09:36:29;27.90;97.10
6407;DHT22;3236;51.022;6.818;2022-08-25T09:41:45;28.40;95.90
6407;DHT22;3236;51.022;6.818;2022-08-25T09:44:21;28.40;95.50
6407;DHT22;3236;51.022;6.818;2022-08-25T09:46:58;28.50;95.60
6407;DHT22;3236;51.022;6.818;2022-08-25T09:49:34;28.70;95.10
6407;DHT22;3236;51.022;6.818;2022-08-25T09:52:22;28.50;95.60
6407;DHT22;3236;51.022;6.818;2022-08-25T09:54:52;28.50;94.60
6407;DHT22;3236;51.022;6.818;2022-08-25T09:57:35;29.00;93.90
6407;DHT22;3236;51.022;6.818;2022-08-25T10:02:41;28.70;93.20
6407;DHT22;3236;51.022;6.818;2022-08-25T10:05:20;29.30;92.10
6407;DHT22;3236;51.022;6.818;2022-08-25T10:07:52;29.50;92.20
6407;DHT22;3236;51.022;6.818;2022-08-25T10:10:28;29.40;91.10
6407;DHT22;3236;51.022;6.818;2022-08-25T10:12:57;29.50;91.60
6407;DHT22;3236;51.022;6.818;2022-08-25T10:18:18;30.10;89.60
6407;DHT22;3236;51.022;6.818;2022-08-25T10:21:04;30.40;90.10
6407;DHT22;3236;51.022;6.818;2022-08-25T10:23:32;30.50;90.10
6407;DHT22;3236;51.022;6.818;2022-08-25T10:26:04;29.80;86.80
6407;DHT22;3236;51.022;6.818;2022-08-25T10:28:42;30.10;83.00
6407;DHT22;3236;51.022;6.818;2022-08-25T10:31:17;29.80;80.40
6407;DHT22;3236;51.022;6.818;2022-08-25T10:33:57;29.90;82.80
6407;DHT22;3236;51.022;6.818;2022-08-25T10:36:38;30.80;83.30
6407;DHT22;3236;51.022;6.818;2022-08-25T10:39:15;30.60;81.00
6407;DHT22;3236;51.022;6.818;2022-08-25T10:41:50;30.80;79.30
6407;DHT22;3236;51.022;6.818;2022-08-25T10:44:31;30.90;77.70
6407;DHT22;3236;51.022;6.818;2022-08-25T10:47:35;31.90;75.30
6407;DHT22;3236;51.022;6.818;2022-08-25T10:52:54;31.90;71.30
6407;DHT22;3236;51.022;6.818;2022-08-25T10:55:35;32.90;71.50
6407;DHT22;3236;51.022;6.818;2022-08-25T11:00:45;33.30;68.80
6407;DHT22;3236;51.022;6.818;2022-08-25T11:03:29;34.30;66.30
6407;DHT22;3236;51.022;6.818;2022-08-25T11:06:02;33.80;63.10
6407;DHT22;3236;51.022;6.818;2022-08-25T11:08:33;33.70;62.80
6407;DHT22;3236;51.022;6.818;2022-08-25T11:13:40;34.10;59.10
6407;DHT22;3236;51.022;6.818;2022-08-25T11:16:13;34.20;59.20
6407;DHT22;3236;51.022;6.818;2022-08-25T11:18:47;34.60;59.40
6407;DHT22;3236;51.022;6.818;2022-08-25T11:21:19;35.30;58.80
6407;DHT22;3236;51.022;6.818;2022-08-25T11:23:54;34.80;56.50
6407;DHT22;3236;51.022;6.818;2022-08-25T11:26:26;35.60;55.30
6407;DHT22;3236;51.022;6.818;2022-08-25T11:29:02;35.10;55.60
6407;DHT22;3236;51.022;6.818;2022-08-25T11:31:38;34.70;54.30
6407;DHT22;3236;51.022;6.818;2022-08-25T11:34:08;35.40;55.30
6407;DHT22;3236;51.022;6.818;2022-08-25T11:36:42;35.90;54.40
6407;DHT22;3236;51.022;6.818;2022-08-25T11:39:15;36.10;53.40
6407;DHT22;3236;51.022;6.818;2022-08-25T11:41:53;36.20;52.50
6407;DHT22;3236;51.022;6.818;2022-08-25T11:44:42;36.60;50.60
6407;DHT22;3236;51.022;6.818;2022-08-25T11:47:27;36.30;50.00
6407;DHT22;3236;51.022;6.818;2022-08-25T11:49:58;35.80;50.60
6407;DHT22;3236;51.022;6.818;2022-08-25T11:52:47;36.60;51.00
6407;DHT22;3236;51.022;6.818;2022-08-25T11:55:22;37.50;51.10
6407;DHT22;3236;51.022;6.818;2022-08-25T12:00:39;35.70;50.80
6407;DHT22;3236;51.022;6.818;2022-08-25T12:06:14;35.80;50.80
6407;DHT22;3236;51.022;6.818;2022-08-25T12:09:17;37.00;49.70
6407;DHT22;3236;51.022;6.818;2022-08-25T12:11:53;37.40;50.40
6407;DHT22;3236;51.022;6.818;2022-08-25T12:14:41;37.10;49.70
6407;DHT22;3236;51.022;6.818;2022-08-25T12:17:19;36.30;49.30
6407;DHT22;3236;51.022;6.818;2022-08-25T12:19:50;37.20;49.60
6407;DHT22;3236;51.022;6.818;2022-08-25T12:22:54;37.80;49.30
6407;DHT22;3236;51.022;6.818;2022-08-25T12:25:47;37.10;46.90
6407;DHT22;3236;51.022;6.818;2022-08-25T12:29:00;36.50;46.70
6407;DHT22;3236;51.022;6.818;2022-08-25T12:34:39;37.20;45.20
6407;DHT22;3236;51.022;6.818;2022-08-25T12:37:12;37.60;45.50
6407;DHT22;3236;51.022;6.818;2022-08-25T12:39:54;36.70;47.90
6407;DHT22;3236;51.022;6.818;2022-08-25T12:42:26;37.10;47.40
6407;DHT22;3236;51.022;6.818;2022-08-25T12:45:31;34.90;47.80
6407;DHT22;3236;51.022;6.818;2022-08-25T12:51:02;36.70;48.50
6407;DHT22;3236;51.022;6.818;2022-08-25T12:53:35;37.30;50.00
6407;DHT22;3236;51.022;6.818;2022-08-25T12:56:07;37.30;47.50
6407;DHT22;3236;51.022;6.818;2022-08-25T12:58:46;35.90;46.60
6407;DHT22;3236;51.022;6.818;2022-08-25T13:01:21;36.60;48.20
6407;DHT22;3236;51.022;6.818;2022-08-25T13:07:06;38.20;47.30
6407;DHT22;3236;51.022;6.818;2022-08-25T13:10:06;40.30;46.60
6407;DHT22;3236;51.022;6.818;2022-08-25T13:12:42;40.50;46.40
6407;DHT22;3236;51.022;6.818;2022-08-25T13:15:26;37.10;43.80
6407;DHT22;3236;51.022;6.818;2022-08-25T13:17:54;37.60;47.70
6407;DHT22;3236;51.022;6.818;2022-08-25T13:20:29;37.10;45.10
6407;DHT22;3236;51.022;6.818;2022-08-25T13:22:59;37.20;45.00
6407;DHT22;3236;51.022;6.818;2022-08-25T13:25:28;36.70;44.30
6407;DHT22;3236;51.022;6.818;2022-08-25T13:27:59;37.00;44.00
6407;DHT22;3236;51.022;6.818;2022-08-25T13:30:30;36.60;45.30
6407;DHT22;3236;51.022;6.818;2022-08-25T13:32:58;37.80;49.20
6407;DHT22;3236;51.022;6.818;2022-08-25T13:35:27;38.40;45.60
6407;DHT22;3236;51.022;6.818;2022-08-25T13:38:13;39.50;44.80
6407;DHT22;3236;51.022;6.818;2022-08-25T13:43:11;37.20;46.70
6407;DHT22;3236;51.022;6.818;2022-08-25T13:45:40;37.10;47.70
6407;DHT22;3236;51.022;6.818;2022-08-25T13:48:08;37.00;47.20
6407;DHT22;3236;51.022;6.818;2022-08-25T13:50:37;38.20;44.20
6407;DHT22;3236;51.022;6.818;2022-08-25T13:53:09;38.70;44.00
6407;DHT22;3236;51.022;6.818;2022-08-25T13:58:14;39.10;44.10
6407;DHT22;3236;51.022;6.818;2022-08-25T14:03:28;39.70;45.40
6407;DHT22;3236;51.022;6.818;2022-08-25T14:06:08;40.60;44.70
6407;DHT22;3236;51.022;6.818;2022-08-25T14:08:37;41.10;43.80
6407;DHT22;3236;51.022;6.818;2022-08-25T14:11:09;41.00;43.50
6407;DHT22;3236;51.022;6.818;2022-08-25T14:13:40;40.50;43.50
6407;DHT22;3236;51.022;6.818;2022-08-25T14:16:12;40.30;43.00
6407;DHT22;3236;51.022;6.818;2022-08-25T14:18:46;40.30;42.10
6407;DHT22;3236;51.022;6.818;2022-08-25T14:21:15;39.70;41.30
6407;DHT22;3236;51.022;6.818;2022-08-25T14:23:42;38.80;42.80
6407;DHT22;3236;51.022;6.818;2022-08-25T14:28:38;38.00;42.60
6407;DHT22;3236;51.022;6.818;2022-08-25T14:33:37;37.90;43.10
6407;DHT22;3236;51.022;6.818;2022-08-25T14:36:07;38.00;43.00
6407;DHT22;3236;51.022;6.818;2022-08-25T14:38:35;38.70;43.00
6407;DHT22;3236;51.022;6.818;2022-08-25T14:41:04;38.80;40.90
6407;DHT22;3236;51.022;6.818;2022-08-25T14:43:34;39.00;40.50
6407;DHT22;3236;51.022;6.818;2022-08-25T14:46:07;38.20;42.40
6407;DHT22;3236;51.022;6.818;2022-08-25T14:48:43;38.20;41.50
6407;DHT22;3236;51.022;6.818;2022-08-25T14:51:12;39.60;42.10
6407;DHT22;3236;51.022;6.818;2022-08-25T14:53:41;39.80;43.80
6407;DHT22;3236;51.022;6.818;2022-08-25T14:56:09;41.30;42.70
6407;DHT22;3236;51.022;6.818;2022-08-25T14:58:36;41.90;40.90
6407;DHT22;3236;51.022;6.818;2022-08-25T15:01:04;40.50;38.50
6407;DHT22;3236;51.022;6.818;2022-08-25T15:03:34;41.20;39.40
6407;DHT22;3236;51.022;6.818;2022-08-25T15:06:02;40.40;38.70
6407;DHT22;3236;51.022;6.818;2022-08-25T15:08:30;40.60;40.10
6407;DHT22;3236;51.022;6.818;2022-08-25T15:11:15;41.30;39.90
6407;DHT22;3236;51.022;6.818;2022-08-25T15:13:42;40.60;42.00
6407;DHT22;3236;51.022;6.818;2022-08-25T15:16:16;42.00;41.30
6407;DHT22;3236;51.022;6.818;2022-08-25T15:18:43;39.70;40.50
6407;DHT22;3236;51.022;6.818;2022-08-25T15:21:10;41.00;42.00
6407;DHT22;3236;51.022;6.818;2022-08-25T15:26:08;40.50;41.60
6407;DHT22;3236;51.022;6.818;2022-08-25T15:28:37;41.30;41.00
6407;DHT22;3236;51.022;6.818;2022-08-25T15:31:05;42.30;40.60
6407;DHT22;3236;51.022;6.818;2022-08-25T15:33:33;41.70;39.70
6407;DHT22;3236;51.022;6.818;2022-08-25T15:36:00;39.20;39.90
6407;DHT22;3236;51.022;6.818;2022-08-25T15:38:27;39.30;40.00
6407;DHT22;3236;51.022;6.818;2022-08-25T15:40:54;39.50;42.40
6407;DHT22;3236;51.022;6.818;2022-08-25T15:43:21;40.10;42.20
6407;DHT22;3236;51.022;6.818;2022-08-25T15:45:49;39.30;39.80
6407;DHT22;3236;51.022;6.818;2022-08-25T15:48:16;39.40;39.40
6407;DHT22;3236;51.022;6.818;2022-08-25T15:50:44;40.20;38.40
6407;DHT22;3236;51.022;6.818;2022-08-25T15:53:12;41.10;38.60
6407;DHT22;3236;51.022;6.818;2022-08-25T15:55:39;37.70;35.10
6407;DHT22;3236;51.022;6.818;2022-08-25T16:00:34;39.10;39.30
6407;DHT22;3236;51.022;6.818;2022-08-25T16:03:14;37.80;38.20
6407;DHT22;3236;51.022;6.818;2022-08-25T16:05:44;38.80;39.20
6407;DHT22;3236;51.022;6.818;2022-08-25T16:08:11;38.00;40.00
6407;DHT22;3236;51.022;6.818;2022-08-25T16:10:42;36.90;40.20
6407;DHT22;3236;51.022;6.818;2022-08-25T16:13:10;38.60;40.30
6407;DHT22;3236;51.022;6.818;2022-08-25T16:15:38;37.80;38.00
6407;DHT22;3236;51.022;6.818;2022-08-25T16:18:09;38.00;39.70
6407;DHT22;3236;51.022;6.818;2022-08-25T16:20:36;38.80;41.40
6407;DHT22;3236;51.022;6.818;2022-08-25T16:23:09;37.80;40.50
6407;DHT22;3236;51.022;6.818;2022-08-25T16:25:38;38.50;41.70
6407;DHT22;3236;51.022;6.818;2022-08-25T16:28:06;38.00;40.40
6407;DHT22;3236;51.022;6.818;2022-08-25T16:30:34;38.60;39.50
6407;DHT22;3236;51.022;6.818;2022-08-25T16:35:28;40.10;40.40
6407;DHT22;3236;51.022;6.818;2022-08-25T16:48:03;37.90;40.90
6407;DHT22;3236;51.022;6.818;2022-08-25T16:50:37;35.90;40.90
6407;DHT22;3236;51.022;6.818;2022-08-25T16:53:04;35.20;41.50
6407;DHT22;3236;51.022;6.818;2022-08-25T16:55:59;35.70;42.30
6407;DHT22;3236;51.022;6.818;2022-08-25T16:58:27;34.50;42.10
6407;DHT22;3236;51.022;6.818;2022-08-25T17:03:22;33.70;42.40
6407;DHT22;3236;51.022;6.818;2022-08-25T17:05:50;33.90;42.70
6407;DHT22;3236;51.022;6.818;2022-08-25T17:08:21;33.30;43.00
6407;DHT22;3236;51.022;6.818;2022-08-25T17:11:08;33.30;42.10
6407;DHT22;3236;51.022;6.818;2022-08-25T17:13:37;33.40;43.70
6407;DHT22;3236;51.022;6.818;2022-08-25T17:16:05;33.20;43.40
6407;DHT22;3236;51.022;6.818;2022-08-25T17:23:29;32.80;44.40
6407;DHT22;3236;51.022;6.818;2022-08-25T17:25:56;32.10;45.10
6407;DHT22;3236;51.022;6.818;2022-08-25T17:28:25;32.40;43.90
6407;DHT22;3236;51.022;6.818;2022-08-25T17:30:54;32.60;44.90
6407;DHT22;3236;51.022;6.818;2022-08-25T17:33:25;31.70;44.50
6407;DHT22;3236;51.022;6.818;2022-08-25T17:35:55;32.00;49.00
6407;DHT22;3236;51.022;6.818;2022-08-25T17:38:24;31.80;45.30
6407;DHT22;3236;51.022;6.818;2022-08-25T17:40:51;31.80;44.50
6407;DHT22;3236;51.022;6.818;2022-08-25T17:43:19;31.80;44.30
6407;DHT22;3236;51.022;6.818;2022-08-25T17:45:48;32.10;46.80
6407;DHT22;3236;51.022;6.818;2022-08-25T17:48:16;31.10;46.90
6407;DHT22;3236;51.022;6.818;2022-08-25T17:50:45;31.20;45.20
6407;DHT22;3236;51.022;6.818;2022-08-25T17:53:14;30.70;46.80
6407;DHT22;3236;51.022;6.818;2022-08-25T17:55:42;31.00;46.30
6407;DHT22;3236;51.022;6.818;2022-08-25T17:58:11;30.40;48.50
6407;DHT22;3236;51.022;6.818;2022-08-25T18:00:40;30.20;46.90
6407;DHT22;3236;51.022;6.818;2022-08-25T18:03:08;30.00;47.20
6407;DHT22;3236;51.022;6.818;2022-08-25T18:05:36;29.70;46.50
6407;DHT22;3236;51.022;6.818;2022-08-25T18:08:04;30.00;47.00
6407;DHT22;3236;51.022;6.818;2022-08-25T18:10:31;30.20;48.30
6407;DHT22;3236;51.022;6.818;2022-08-25T18:12:59;29.60;49.60
6407;DHT22;3236;51.022;6.818;2022-08-25T18:15:28;29.10;49.40
6407;DHT22;3236;51.022;6.818;2022-08-25T18:20:24;29.60;51.80
6407;DHT22;3236;51.022;6.818;2022-08-25T18:22:53;28.70;53.60
6407;DHT22;3236;51.022;6.818;2022-08-25T18:25:22;28.80;52.60
6407;DHT22;3236;51.022;6.818;2022-08-25T18:27:51;28.10;53.60
6407;DHT22;3236;51.022;6.818;2022-08-25T18:30:18;28.70;51.90
6407;DHT22;3236;51.022;6.818;2022-08-25T18:32:46;28.40;53.10
6407;DHT22;3236;51.022;6.818;2022-08-25T18:35:13;27.80;53.30
6407;DHT22;3236;51.022;6.818;2022-08-25T18:37:41;28.10;53.10
6407;DHT22;3236;51.022;6.818;2022-08-25T18:40:26;28.30;52.10
6407;DHT22;3236;51.022;6.818;2022-08-25T18:43:06;27.80;52.80
6407;DHT22;3236;51.022;6.818;2022-08-25T18:45:38;27.60;53.10
6407;DHT22;3236;51.022;6.818;2022-08-25T18:48:05;27.60;56.00
6407;DHT22;3236;51.022;6.818;2022-08-25T18:50:36;27.70;56.50
6407;DHT22;3236;51.022;6.818;2022-08-25T18:53:05;26.90;55.20
6407;DHT22;3236;51.022;6.818;2022-08-25T18:55:36;27.30;59.30
6407;DHT22;3236;51.022;6.818;2022-08-25T18:58:05;27.50;59.00
6407;DHT22;3236;51.022;6.818;2022-08-25T19:00:33;27.00;56.60
6407;DHT22;3236;51.022;6.818;2022-08-25T19:03:01;26.40;58.40
6407;DHT22;3236;51.022;6.818;2022-08-25T19:05:31;26.60;58.30
6407;DHT22;3236;51.022;6.818;2022-08-25T19:08:02;26.60;57.90
6407;DHT22;3236;51.022;6.818;2022-08-25T19:13:02;26.60;59.20
6407;DHT22;3236;51.022;6.818;2022-08-25T19:15:29;26.20;59.30
6407;DHT22;3236;51.022;6.818;2022-08-25T19:17:57;26.30;60.00
6407;DHT22;3236;51.022;6.818;2022-08-25T19:20:26;26.20;60.60
6407;DHT22;3236;51.022;6.818;2022-08-25T19:25:21;26.10;62.80
6407;DHT22;3236;51.022;6.818;2022-08-25T19:27:52;25.50;63.60
6407;DHT22;3236;51.022;6.818;2022-08-25T19:32:49;25.60;63.70
6407;DHT22;3236;51.022;6.818;2022-08-25T19:35:22;25.50;62.30
6407;DHT22;3236;51.022;6.818;2022-08-25T19:37:52;25.80;63.60
6407;DHT22;3236;51.022;6.818;2022-08-25T19:40:20;25.70;62.10
6407;DHT22;3236;51.022;6.818;2022-08-25T19:42:51;25.00;61.80
6407;DHT22;3236;51.022;6.818;2022-08-25T19:45:22;25.10;62.90
6407;DHT22;3236;51.022;6.818;2022-08-25T19:50:35;24.80;64.80
6407;DHT22;3236;51.022;6.818;2022-08-25T19:53:02;24.60;73.30
6407;DHT22;3236;51.022;6.818;2022-08-25T19:55:30;24.60;72.90
6407;DHT22;3236;51.022;6.818;2022-08-25T20:00:29;25.10;73.80
6407;DHT22;3236;51.022;6.818;2022-08-25T20:02:57;25.00;72.10
6407;DHT22;3236;51.022;6.818;2022-08-25T20:05:25;24.90;72.70
6407;DHT22;3236;51.022;6.818;2022-08-25T20:07:53;25.30;75.50
6407;DHT22;3236;51.022;6.818;2022-08-25T20:10:21;24.50;73.70
6407;DHT22;3236;51.022;6.818;2022-08-25T20:12:55;24.70;74.70
6407;DHT22;3236;51.022;6.818;2022-08-25T20:15:24;25.10;75.20
6407;DHT22;3236;51.022;6.818;2022-08-25T20:17:55;24.50;74.20
6407;DHT22;3236;51.022;6.818;2022-08-25T20:20:22;25.20;79.80
6407;DHT22;3236;51.022;6.818;2022-08-25T20:22:50;24.90;82.80
6407;DHT22;3236;51.022;6.818;2022-08-25T20:25:21;24.70;83.20
6407;DHT22;3236;51.022;6.818;2022-08-25T20:27:52;26.30;84.10
6407;DHT22;3236;51.022;6.818;2022-08-25T20:30:21;24.30;85.10
6407;DHT22;3236;51.022;6.818;2022-08-25T20:32:52;24.50;87.80
6407;DHT22;3236;51.022;6.818;2022-08-25T20:35:20;24.50;86.20
6407;DHT22;3236;51.022;6.818;2022-08-25T20:37:49;24.00;89.70